createdAt,value
2017-12-08T00:00:26.607Z,4.31
2017-12-08T00:01:37.790Z,4.31
2017-12-08T00:02:48.105Z,4.43
2017-12-08T00:03:58.395Z,4.46
2017-12-08T00:05:08.463Z,4.4
2017-12-08T00:06:18.870Z,4.37
2017-12-08T00:07:29.221Z,4.3
2017-12-08T00:08:39.471Z,4.37
2017-12-08T00:09:49.619Z,4.37
2017-12-08T00:10:59.507Z,4.36
2017-12-08T00:12:08.961Z,4.46
2017-12-08T00:13:19.135Z,4.41
2017-12-08T00:14:29.862Z,4.4
2017-12-08T00:15:40.000Z,4.4
2017-12-08T00:16:50.532Z,4.41
2017-12-08T00:18:00.782Z,4.43
2017-12-08T00:19:11.291Z,4.53
2017-12-08T00:20:22.005Z,4.43
2017-12-08T00:21:32.175Z,4.46
2017-12-08T00:22:42.557Z,4.5
2017-12-08T00:23:53.175Z,4.6
2017-12-08T00:25:03.323Z,4.55
2017-12-08T00:26:13.895Z,4.55
2017-12-08T00:27:24.028Z,4.55
2017-12-08T00:28:34.292Z,4.52
2017-12-08T00:29:44.233Z,4.52
2017-12-08T00:30:54.392Z,4.56
2017-12-08T00:32:05.024Z,4.47
2017-12-08T00:33:15.117Z,4.52
2017-12-08T00:34:25.528Z,4.47
2017-12-08T00:35:35.985Z,4.49
2017-12-08T00:36:46.239Z,4.53
2017-12-08T00:37:56.523Z,4.5
2017-12-08T00:39:06.985Z,4.53
2017-12-08T00:40:17.445Z,4.56
2017-12-08T00:41:27.808Z,4.55
2017-12-08T00:42:38.370Z,4.6
2017-12-08T00:43:48.937Z,4.6
2017-12-08T00:44:59.199Z,4.56
2017-12-08T00:46:09.652Z,4.67
2017-12-08T00:47:20.232Z,4.65
2017-12-08T00:48:30.763Z,4.75
2017-12-08T00:49:41.298Z,4.57
2017-12-08T00:50:51.746Z,4.67
2017-12-08T00:52:02.234Z,4.59
2017-12-08T00:53:12.686Z,4.71
2017-12-08T00:54:23.128Z,4.7
2017-12-08T00:55:33.498Z,4.65
2017-12-08T00:56:43.681Z,4.65
2017-12-08T00:57:54.331Z,4.59
2017-12-08T00:59:04.773Z,4.68
2017-12-08T01:00:15.181Z,4.62
2017-12-08T01:01:25.063Z,4.71
2017-12-08T01:02:35.328Z,4.8
2017-12-08T01:03:45.671Z,4.77
2017-12-08T01:04:56.035Z,4.83
2017-12-08T01:06:06.489Z,4.85
2017-12-08T01:07:16.798Z,4.8
2017-12-08T01:08:27.346Z,4.7
2017-12-08T01:09:37.726Z,4.83
2017-12-08T01:10:48.013Z,4.8
2017-12-08T01:11:58.312Z,4.81
2017-12-08T01:13:08.056Z,4.85
2017-12-08T01:14:18.191Z,4.78
2017-12-08T01:15:28.619Z,4.8
2017-12-08T01:16:38.959Z,4.77
2017-12-08T01:17:50.341Z,4.85
2017-12-08T01:19:01.669Z,4.89
2017-12-08T01:20:11.472Z,4.78
2017-12-08T01:21:22.471Z,4.86
2017-12-08T01:22:32.925Z,4.92
2017-12-08T01:23:43.242Z,4.86
2017-12-08T01:24:53.679Z,4.81
2017-12-08T01:26:04.293Z,4.78
2017-12-08T01:27:14.395Z,4.78
2017-12-08T01:28:24.642Z,4.85
2017-12-08T01:29:34.689Z,4.81
2017-12-08T01:30:45.156Z,4.8
2017-12-08T01:31:55.840Z,4.83
2017-12-08T01:33:06.433Z,4.81
2017-12-08T01:34:16.763Z,4.92
2017-12-08T01:35:26.923Z,4.98
2017-12-08T01:36:36.963Z,4.93
2017-12-08T01:37:46.987Z,4.95
2017-12-08T01:38:57.247Z,4.96
2017-12-08T01:40:06.985Z,4.95
2017-12-08T01:41:16.948Z,4.95
2017-12-08T01:42:27.240Z,4.88
2017-12-08T01:43:37.533Z,4.98
2017-12-08T01:44:47.759Z,4.83
2017-12-08T01:45:57.627Z,4.83
2017-12-08T01:47:07.873Z,4.95
2017-12-08T01:48:18.085Z,4.81
2017-12-08T01:49:28.062Z,4.83
2017-12-08T01:50:38.346Z,4.85
2017-12-08T01:51:48.610Z,4.86
2017-12-08T01:52:58.602Z,4.85
2017-12-08T01:54:09.327Z,4.85
2017-12-08T01:55:19.603Z,4.7
2017-12-08T01:56:29.987Z,4.7
2017-12-08T01:57:40.714Z,4.86
2017-12-08T01:58:50.725Z,4.86
2017-12-08T02:00:00.759Z,4.81
2017-12-08T02:01:10.832Z,4.85
2017-12-08T02:02:21.121Z,4.7
2017-12-08T02:03:31.381Z,4.86
2017-12-08T02:04:41.684Z,4.83
2017-12-08T02:05:51.970Z,4.73
2017-12-08T02:07:01.640Z,4.85
2017-12-08T02:08:11.902Z,4.85
2017-12-08T02:09:21.888Z,4.77
2017-12-08T02:10:32.376Z,4.88
2017-12-08T02:11:42.272Z,4.86
2017-12-08T02:12:52.688Z,4.77
2017-12-08T02:14:02.421Z,4.88
2017-12-08T02:15:12.551Z,4.71
2017-12-08T02:16:22.822Z,4.65
2017-12-08T02:17:32.715Z,4.65
2017-12-08T02:18:43.046Z,4.67
2017-12-08T02:19:53.081Z,4.6
2017-12-08T02:21:03.615Z,4.7
2017-12-08T02:22:13.616Z,4.74
2017-12-08T02:23:23.855Z,4.71
2017-12-08T02:24:34.119Z,4.71
2017-12-08T02:25:44.479Z,4.63
2017-12-08T02:26:54.374Z,4.5
2017-12-08T02:28:04.652Z,4.5
2017-12-08T02:29:14.933Z,4.52
2017-12-08T02:30:25.298Z,4.55
2017-12-08T02:31:35.653Z,4.5
2017-12-08T02:32:46.222Z,4.41
2017-12-08T02:33:56.585Z,4.5
2017-12-08T02:35:06.596Z,4.4
2017-12-08T02:36:17.122Z,4.38
2017-12-08T02:37:27.382Z,4.4
2017-12-08T02:38:37.650Z,4.38
2017-12-08T02:39:47.932Z,4.33
2017-12-08T02:40:58.242Z,4.43
2017-12-08T02:42:08.582Z,4.43
2017-12-08T02:43:18.879Z,4.37
2017-12-08T02:44:28.912Z,4.4
2017-12-08T02:45:38.908Z,4.31
2017-12-08T02:46:49.172Z,4.36
2017-12-08T02:47:59.087Z,4.27
2017-12-08T02:49:09.427Z,4.3
2017-12-08T02:50:19.479Z,4.23
2017-12-08T02:51:29.728Z,4.31
2017-12-08T02:52:39.756Z,4.22
2017-12-08T02:53:49.776Z,4.22
2017-12-08T02:54:59.803Z,4.15
2017-12-08T02:56:09.431Z,4.28
2017-12-08T02:57:19.440Z,4.19
2017-12-08T02:58:29.442Z,4.3
2017-12-08T02:59:39.476Z,4.31
2017-12-08T03:00:50.398Z,4.33
2017-12-08T03:02:00.694Z,4.4
2017-12-08T03:03:10.692Z,4.46
2017-12-08T03:04:21.195Z,4.31
2017-12-08T03:05:31.495Z,4.38
2017-12-08T03:06:41.755Z,4.41
2017-12-08T03:07:52.006Z,4.4
2017-12-08T03:09:02.113Z,4.36
2017-12-08T03:10:12.395Z,4.37
2017-12-08T03:11:22.771Z,4.3
2017-12-08T03:12:33.041Z,4.37
2017-12-08T03:13:43.313Z,4.31
2017-12-08T03:14:53.340Z,4.3
2017-12-08T03:16:03.372Z,4.34
2017-12-08T03:17:13.605Z,4.34
2017-12-08T03:18:23.881Z,4.46
2017-12-08T03:19:34.153Z,4.41
2017-12-08T03:20:44.595Z,4.3
2017-12-08T03:21:54.884Z,4.46
2017-12-08T03:23:04.883Z,4.38
2017-12-08T03:24:14.904Z,4.4
2017-12-08T03:25:25.172Z,4.37
2017-12-08T03:26:35.149Z,4.4
2017-12-08T03:27:45.478Z,4.4
2017-12-08T03:28:55.745Z,4.37
2017-12-08T03:30:05.793Z,4.43
2017-12-08T03:31:16.062Z,4.43
2017-12-08T03:32:26.318Z,4.34
2017-12-08T03:33:36.388Z,4.31
2017-12-08T03:34:46.430Z,4.38
2017-12-08T03:35:56.848Z,4.36
2017-12-08T03:37:07.239Z,4.38
2017-12-08T03:38:17.499Z,4.34
2017-12-08T03:39:27.564Z,4.36
2017-12-08T03:40:37.840Z,4.4
2017-12-08T03:41:47.853Z,4.43
2017-12-08T03:42:57.928Z,4.38
2017-12-08T03:44:08.477Z,4.38
2017-12-08T03:45:18.547Z,4.43
2017-12-08T03:46:28.857Z,4.43
2017-12-08T03:47:38.875Z,4.4
2017-12-08T03:48:48.878Z,4.47
2017-12-08T03:49:59.202Z,4.55
2017-12-08T03:51:09.230Z,4.53
2017-12-08T03:52:19.335Z,4.56
2017-12-08T03:53:29.250Z,4.47
2017-12-08T03:54:39.501Z,4.52
2017-12-08T03:55:49.853Z,4.47
2017-12-08T03:57:00.101Z,4.5
2017-12-08T03:58:10.164Z,4.5
2017-12-08T03:59:20.455Z,4.47
2017-12-08T04:00:30.496Z,4.41
2017-12-08T04:01:40.524Z,4.43
2017-12-08T04:02:50.788Z,4.5
2017-12-08T04:04:01.078Z,4.4
2017-12-08T04:05:10.829Z,4.46
2017-12-08T04:06:21.232Z,4.43
2017-12-08T04:07:31.521Z,4.47
2017-12-08T04:08:41.772Z,4.53
2017-12-08T04:09:52.035Z,4.57
2017-12-08T04:11:02.289Z,4.55
2017-12-08T04:12:12.315Z,4.47
2017-12-08T04:13:22.307Z,4.56
2017-12-08T04:14:32.423Z,4.52
2017-12-08T04:15:42.678Z,4.57
2017-12-08T04:16:53.047Z,4.49
2017-12-08T04:18:04.336Z,4.56
2017-12-08T04:19:14.656Z,4.55
2017-12-08T04:20:24.700Z,4.46
2017-12-08T04:21:34.795Z,4.49
2017-12-08T04:22:45.200Z,4.41
2017-12-08T04:23:55.498Z,4.41
2017-12-08T04:25:05.385Z,4.41
2017-12-08T04:26:15.632Z,4.33
2017-12-08T04:27:25.884Z,4.36
2017-12-08T04:28:36.183Z,4.37
2017-12-08T04:29:46.684Z,4.23
2017-12-08T04:30:56.974Z,4.23
2017-12-08T04:32:07.045Z,4.25
2017-12-08T04:33:17.350Z,4.18
2017-12-08T04:34:27.406Z,4.13
2017-12-08T04:35:37.294Z,4.18
2017-12-08T04:36:48.180Z,4.12
2017-12-08T04:37:58.459Z,4.08
2017-12-08T04:39:08.574Z,4.01
2017-12-08T04:40:18.836Z,3.97
2017-12-08T04:41:29.141Z,3.98
2017-12-08T04:42:38.919Z,4.05
2017-12-08T04:43:48.881Z,4.04
2017-12-08T04:44:59.122Z,4.09
2017-12-08T04:46:09.216Z,4.03
2017-12-08T04:47:19.488Z,4.04
2017-12-08T04:48:29.748Z,4.18
2017-12-08T04:49:39.755Z,4.12
2017-12-08T04:50:49.797Z,4.2
2017-12-08T04:52:00.106Z,4.11
2017-12-08T04:53:09.846Z,4.11
2017-12-08T04:54:19.850Z,4.09
2017-12-08T04:55:30.144Z,4.22
2017-12-08T04:56:40.219Z,4.12
2017-12-08T04:57:50.593Z,4.09
2017-12-08T04:59:00.866Z,4.12
2017-12-08T05:00:11.167Z,4.2
2017-12-08T05:01:21.581Z,4.11
2017-12-08T05:02:31.570Z,4.11
2017-12-08T05:03:41.565Z,4.16
2017-12-08T05:04:51.837Z,4.13
2017-12-08T05:06:02.207Z,4.11
2017-12-08T05:07:13.313Z,4.19
2017-12-08T05:08:23.605Z,4.19
2017-12-08T05:09:33.920Z,4.23
2017-12-08T05:10:44.663Z,4.2
2017-12-08T05:11:55.043Z,4.2
2017-12-08T05:13:04.935Z,4.12
2017-12-08T05:14:15.215Z,4.2
2017-12-08T05:15:25.263Z,4.12
2017-12-08T05:16:35.785Z,4.16
2017-12-08T05:17:46.043Z,4.12
2017-12-08T05:18:56.413Z,4.04
2017-12-08T05:20:06.420Z,4.05
2017-12-08T05:21:16.415Z,4.08
2017-12-08T05:22:26.682Z,4.04
2017-12-08T05:23:36.689Z,4.03
2017-12-08T05:24:46.816Z,4
2017-12-08T05:25:56.818Z,3.98
2017-12-08T05:27:06.858Z,3.97
2017-12-08T05:28:17.166Z,4
2017-12-08T05:29:27.198Z,4.01
2017-12-08T05:30:37.207Z,3.98
2017-12-08T05:31:47.187Z,3.95
2017-12-08T05:32:58.407Z,3.98
2017-12-08T05:34:08.720Z,4
2017-12-08T05:35:19.016Z,3.95
2017-12-08T05:36:29.288Z,3.97
2017-12-08T05:37:39.556Z,3.98
2017-12-08T05:38:49.815Z,3.97
2017-12-08T05:39:59.976Z,4
2017-12-08T05:41:10.375Z,3.94
2017-12-08T05:42:20.627Z,3.95
2017-12-08T05:43:30.894Z,4
2017-12-08T05:44:41.260Z,4.01
2017-12-08T05:45:51.747Z,4.03
2017-12-08T05:47:01.463Z,4.05
2017-12-08T05:48:12.095Z,4.01
2017-12-08T05:49:22.003Z,3.98
2017-12-08T05:50:32.068Z,4
2017-12-08T05:51:43.066Z,4.01
2017-12-08T05:52:52.994Z,3.98
2017-12-08T05:54:03.194Z,4.11
2017-12-08T05:55:13.484Z,4.01
2017-12-08T05:56:23.485Z,4.04
2017-12-08T05:57:33.522Z,4.01
2017-12-08T05:58:43.552Z,4.03
2017-12-08T05:59:53.824Z,4.04
2017-12-08T06:01:03.830Z,4
2017-12-08T06:02:14.093Z,4.01
2017-12-08T06:03:24.352Z,4.03
2017-12-08T06:04:34.003Z,4.03
2017-12-08T06:05:44.390Z,3.97
2017-12-08T06:06:54.035Z,4.01
2017-12-08T06:08:04.298Z,3.93
2017-12-08T06:09:14.571Z,3.95
2017-12-08T06:10:24.838Z,3.86
2017-12-08T06:11:34.840Z,4
2017-12-08T06:12:45.167Z,3.97
2017-12-08T06:13:55.443Z,3.94
2017-12-08T06:15:05.721Z,3.87
2017-12-08T06:16:16.006Z,3.91
2017-12-08T06:17:25.921Z,3.95
2017-12-08T06:18:36.207Z,3.83
2017-12-08T06:19:46.196Z,3.85
2017-12-08T06:20:56.469Z,3.86
2017-12-08T06:22:06.466Z,3.8
2017-12-08T06:23:16.425Z,3.72
2017-12-08T06:24:26.744Z,3.75
2017-12-08T06:25:37.154Z,3.73
2017-12-08T06:26:47.439Z,3.65
2017-12-08T06:27:57.741Z,3.65
2017-12-08T06:29:07.993Z,3.67
2017-12-08T06:30:18.351Z,3.73
2017-12-08T06:31:28.630Z,3.73
2017-12-08T06:32:39.299Z,3.65
2017-12-08T06:33:49.345Z,3.55
2017-12-08T06:34:59.352Z,3.62
2017-12-08T06:36:09.636Z,3.5
2017-12-08T06:37:19.091Z,3.46
2017-12-08T06:38:29.355Z,3.43
2017-12-08T06:39:39.646Z,3.4
2017-12-08T06:40:50.138Z,3.42
2017-12-08T06:42:00.400Z,3.32
2017-12-08T06:43:11.397Z,3.36
2017-12-08T06:44:21.325Z,3.39
2017-12-08T06:45:31.329Z,3.24
2017-12-08T06:46:41.367Z,3.37
2017-12-08T06:47:51.760Z,3.39
2017-12-08T06:49:02.182Z,3.32
2017-12-08T06:50:12.248Z,3.31
2017-12-08T06:51:22.511Z,3.39
2017-12-08T06:52:32.199Z,3.26
2017-12-08T06:53:42.111Z,3.37
2017-12-08T06:54:52.430Z,3.34
2017-12-08T06:56:02.432Z,3.31
2017-12-08T06:57:12.438Z,3.34
2017-12-08T06:58:22.439Z,3.32
2017-12-08T06:59:32.445Z,3.26
2017-12-08T07:00:42.845Z,3.26
2017-12-08T07:01:52.854Z,3.25
2017-12-08T07:03:03.180Z,3.25
2017-12-08T07:04:13.169Z,3.25
2017-12-08T07:05:23.459Z,3.28
2017-12-08T07:06:33.362Z,3.29
2017-12-08T07:07:43.647Z,3.32
2017-12-08T07:08:53.671Z,3.34
2017-12-08T07:10:03.305Z,3.32
2017-12-08T07:11:13.604Z,3.26
2017-12-08T07:12:23.957Z,3.25
2017-12-08T07:13:34.296Z,3.32
2017-12-08T07:14:44.631Z,3.25
2017-12-08T07:15:54.973Z,3.25
2017-12-08T07:17:05.233Z,3.24
2017-12-08T07:18:15.452Z,3.24
2017-12-08T07:19:25.824Z,3.22
2017-12-08T07:20:37.079Z,3.19
2017-12-08T07:21:47.226Z,3.21
2017-12-08T07:22:57.533Z,3.16
2017-12-08T07:24:07.553Z,3.19
2017-12-08T07:25:17.464Z,3.21
2017-12-08T07:26:27.767Z,3.15
2017-12-08T07:27:38.043Z,3.19
2017-12-08T07:28:48.302Z,3.19
2017-12-08T07:29:58.604Z,3.25
2017-12-08T07:31:09.161Z,3.21
2017-12-08T07:32:19.432Z,3.24
2017-12-08T07:33:29.705Z,3.28
2017-12-08T07:34:39.722Z,3.24
2017-12-08T07:35:49.730Z,3.16
2017-12-08T07:37:00.109Z,3.28
2017-12-08T07:38:10.407Z,3.16
2017-12-08T07:39:20.406Z,3.25
2017-12-08T07:40:30.743Z,3.11
2017-12-08T07:41:41.114Z,3.15
2017-12-08T07:42:51.014Z,3.06
2017-12-08T07:44:01.327Z,3.06
2017-12-08T07:45:11.734Z,3.06
2017-12-08T07:46:22.005Z,3
2017-12-08T07:47:32.276Z,3.04
2017-12-08T07:48:42.561Z,2.97
2017-12-08T07:49:52.598Z,3.02
2017-12-08T07:51:02.602Z,3.13
2017-12-08T07:52:12.603Z,3.13
2017-12-08T07:53:22.893Z,3.11
2017-12-08T07:54:33.212Z,3.06
2017-12-08T07:55:43.374Z,3.06
2017-12-08T07:56:53.715Z,3.06
2017-12-08T07:58:03.732Z,3.08
2017-12-08T07:59:13.858Z,3.08
2017-12-08T08:00:23.841Z,3.06
2017-12-08T08:01:34.130Z,3.07
2017-12-08T08:02:44.401Z,3.04
2017-12-08T08:03:54.985Z,3.06
2017-12-08T08:05:05.268Z,3.04
2017-12-08T08:06:15.644Z,2.99
2017-12-08T08:07:25.581Z,2.92
2017-12-08T08:08:35.259Z,2.91
2017-12-08T08:09:45.188Z,2.92
2017-12-08T08:10:55.191Z,2.81
2017-12-08T08:12:05.516Z,2.91
2017-12-08T08:13:15.787Z,2.79
2017-12-08T08:14:26.082Z,2.87
2017-12-08T08:15:35.704Z,2.82
2017-12-08T08:16:46.207Z,2.89
2017-12-08T08:17:56.196Z,2.84
2017-12-08T08:19:06.399Z,2.87
2017-12-08T08:20:16.411Z,2.81
2017-12-08T08:21:26.713Z,2.85
2017-12-08T08:22:36.486Z,2.82
2017-12-08T08:23:46.490Z,2.82
2017-12-08T08:24:56.818Z,2.89
2017-12-08T08:26:07.146Z,2.85
2017-12-08T08:27:17.164Z,2.81
2017-12-08T08:28:27.190Z,2.85
2017-12-08T08:29:37.306Z,2.85
2017-12-08T08:30:47.583Z,2.85
2017-12-08T08:31:57.846Z,2.88
2017-12-08T08:33:08.118Z,2.91
2017-12-08T08:34:18.194Z,2.82
2017-12-08T08:35:28.462Z,2.94
2017-12-08T08:36:38.474Z,2.91
2017-12-08T08:37:48.734Z,3.1
2017-12-08T08:38:59.000Z,3.06
2017-12-08T08:40:09.019Z,3.21
2017-12-08T08:41:19.318Z,3.28
2017-12-08T08:42:29.348Z,3.32
2017-12-08T08:43:39.647Z,3.37
2017-12-08T08:44:49.939Z,3.37
2017-12-08T08:46:00.262Z,3.4
2017-12-08T08:47:10.263Z,3.31
2017-12-08T08:48:20.608Z,3.43
2017-12-08T08:49:30.942Z,3.37
2017-12-08T08:50:41.206Z,3.43
2017-12-08T08:51:51.637Z,3.44
2017-12-08T08:53:01.631Z,3.4
2017-12-08T08:54:11.725Z,3.43
2017-12-08T08:55:22.006Z,3.43
2017-12-08T08:56:32.320Z,3.43
2017-12-08T08:57:42.825Z,3.43
2017-12-08T08:58:53.145Z,3.36
2017-12-08T09:00:03.130Z,3.42
2017-12-08T09:01:13.412Z,3.42
2017-12-08T09:02:23.055Z,3.37
2017-12-08T09:03:33.336Z,3.54
2017-12-08T09:04:43.220Z,3.49
2017-12-08T09:05:53.161Z,3.54
2017-12-08T09:07:03.468Z,3.54
2017-12-08T09:08:12.837Z,3.61
2017-12-08T09:09:22.832Z,3.58
2017-12-08T09:10:33.102Z,3.62
2017-12-08T09:11:43.006Z,3.73
2017-12-08T09:12:53.329Z,3.64
2017-12-08T09:14:03.613Z,3.67
2017-12-08T09:15:13.943Z,3.68
2017-12-08T09:16:24.246Z,3.72
2017-12-08T09:17:35.505Z,3.73
2017-12-08T09:18:45.432Z,3.67
2017-12-08T09:19:55.723Z,3.68
2017-12-08T09:21:06.045Z,3.76
2017-12-08T09:22:16.307Z,3.73
2017-12-08T09:23:27.284Z,3.62
2017-12-08T09:24:37.612Z,3.67
2017-12-08T09:25:47.428Z,3.69
2017-12-08T09:26:57.741Z,3.75
2017-12-08T09:28:07.831Z,3.72
2017-12-08T09:29:17.871Z,3.73
2017-12-08T09:30:27.725Z,3.65
2017-12-08T09:31:38.020Z,3.69
2017-12-08T09:32:48.329Z,3.73
2017-12-08T09:33:58.341Z,3.69
2017-12-08T09:35:08.645Z,3.77
2017-12-08T09:36:18.919Z,3.75
2017-12-08T09:37:28.921Z,3.85
2017-12-08T09:38:38.736Z,3.85
2017-12-08T09:39:49.110Z,3.85
2017-12-08T09:40:59.158Z,3.97
2017-12-08T09:42:09.217Z,4.05
2017-12-08T09:43:19.503Z,4.01
2017-12-08T09:44:29.772Z,4.15
2017-12-08T09:45:40.194Z,4.23
2017-12-08T09:46:50.932Z,4.2
2017-12-08T09:48:00.937Z,4.34
2017-12-08T09:49:11.449Z,4.36
2017-12-08T09:50:21.742Z,4.52
2017-12-08T09:51:32.054Z,4.56
2017-12-08T09:52:42.326Z,4.67
2017-12-08T09:53:52.723Z,4.71
2017-12-08T09:55:02.724Z,4.53
2017-12-08T09:56:12.462Z,4.46
2017-12-08T09:57:22.997Z,4.34
2017-12-08T09:58:33.282Z,4.16
2017-12-08T09:59:43.305Z,4.23
2017-12-08T10:00:53.089Z,4.2
2017-12-08T10:02:03.413Z,4.19
2017-12-08T10:03:13.709Z,4.2
2017-12-08T10:04:23.445Z,4
2017-12-08T10:05:33.468Z,3.98
2017-12-08T10:06:44.026Z,4.04
2017-12-08T10:07:54.303Z,3.97
2017-12-08T10:09:04.665Z,4.19
2017-12-08T10:10:14.684Z,4.53
2017-12-08T10:11:25.255Z,5.04
2017-12-08T10:12:35.524Z,5.56
2017-12-08T10:13:45.789Z,6.09
2017-12-08T10:14:56.060Z,6.63
2017-12-08T10:16:06.445Z,7.24
2017-12-08T10:17:16.735Z,7.74
2017-12-08T10:18:27.032Z,8.1
2017-12-08T10:19:37.315Z,8.55
2017-12-08T10:20:47.236Z,8.97
2017-12-08T10:21:57.278Z,9.3
2017-12-08T10:23:07.295Z,9.4
2017-12-08T10:24:17.645Z,9.65
2017-12-08T10:25:27.913Z,9.75
2017-12-08T10:26:38.183Z,9.95
2017-12-08T10:27:48.454Z,10.11
2017-12-08T10:28:58.473Z,10.15
2017-12-08T10:30:08.828Z,10.32
2017-12-08T10:31:19.111Z,10.3
2017-12-08T10:32:30.123Z,10.15
2017-12-08T10:33:40.462Z,10.22
2017-12-08T10:34:50.136Z,10.3
2017-12-08T10:36:00.218Z,10.29
2017-12-08T10:37:10.211Z,10.32
2017-12-08T10:38:20.505Z,10.22
2017-12-08T10:39:30.453Z,10.21
2017-12-08T10:40:40.461Z,10.02
2017-12-08T10:41:50.934Z,10.08
2017-12-08T10:43:00.855Z,10
2017-12-08T10:44:11.142Z,9.99
2017-12-08T10:45:21.529Z,10.1
2017-12-08T10:46:31.861Z,10.02
2017-12-08T10:47:41.979Z,9.95
2017-12-08T10:48:52.291Z,9.89
2017-12-08T10:50:02.584Z,9.99
2017-12-08T10:51:12.906Z,10.15
2017-12-08T10:52:23.220Z,10.1
2017-12-08T10:53:33.637Z,10.17
2017-12-08T10:54:43.405Z,10.17
2017-12-08T10:55:53.464Z,10.02
2017-12-08T10:57:03.793Z,9.96
2017-12-08T10:58:14.080Z,10
2017-12-08T10:59:24.128Z,10.13
2017-12-08T11:00:34.206Z,10.08
2017-12-08T11:01:44.506Z,10
2017-12-08T11:02:54.505Z,10.17
2017-12-08T11:04:04.816Z,10.07
2017-12-08T11:05:15.119Z,10.05
2017-12-08T11:06:25.578Z,9.91
2017-12-08T11:07:35.593Z,9.8
2017-12-08T11:08:45.503Z,9.62
2017-12-08T11:09:55.877Z,9.58
2017-12-08T11:11:06.172Z,9.3
2017-12-08T11:12:16.444Z,9.02
2017-12-08T11:13:26.716Z,8.61
2017-12-08T11:14:36.758Z,8.31
2017-12-08T11:15:46.782Z,7.92
2017-12-08T11:16:57.065Z,7.73
2017-12-08T11:18:07.093Z,7.54
2017-12-08T11:19:17.435Z,7.41
2017-12-08T11:20:27.944Z,7.22
2017-12-08T11:21:37.964Z,7.06
2017-12-08T11:22:48.209Z,7.02
2017-12-08T11:23:58.483Z,7.05
2017-12-08T11:25:08.770Z,6.79
2017-12-08T11:26:19.060Z,6.62
2017-12-08T11:27:29.070Z,6.56
2017-12-08T11:28:39.384Z,6.52
2017-12-08T11:29:49.436Z,6.44
2017-12-08T11:30:59.822Z,6.54
2017-12-08T11:32:10.090Z,6.45
2017-12-08T11:33:20.370Z,6.52
2017-12-08T11:34:30.638Z,6.63
2017-12-08T11:35:40.650Z,6.63
2017-12-08T11:36:50.547Z,6.56
2017-12-08T11:38:00.860Z,6.72
2017-12-08T11:39:10.907Z,6.81
2017-12-08T11:40:21.179Z,6.97
2017-12-08T11:41:31.227Z,7.21
2017-12-08T11:42:41.307Z,7.48
2017-12-08T11:43:51.800Z,7.58
2017-12-08T11:45:02.074Z,7.74
2017-12-08T11:46:12.130Z,7.47
2017-12-08T11:47:22.126Z,7.43
2017-12-08T11:48:32.645Z,7.55
2017-12-08T11:49:42.943Z,7.54
2017-12-08T11:50:53.032Z,7.4
2017-12-08T11:52:03.460Z,7.26
2017-12-08T11:53:13.760Z,7.06
2017-12-08T11:54:23.791Z,6.78
2017-12-08T11:55:33.817Z,6.64
2017-12-08T11:56:44.355Z,6.46
2017-12-08T11:57:54.402Z,6.38
2017-12-08T11:59:04.673Z,6.28
2017-12-08T12:00:14.964Z,6.21
2017-12-08T12:01:25.235Z,6.02
2017-12-08T12:03:07.519Z,5.88
2017-12-08T12:04:17.793Z,5.86
2017-12-08T12:05:28.324Z,5.8
2017-12-08T12:06:38.600Z,5.64
2017-12-08T12:07:48.864Z,5.58
2017-12-08T12:08:59.144Z,5.51
2017-12-08T12:10:09.140Z,5.5
2017-12-08T12:11:19.139Z,5.38
2017-12-08T12:12:28.893Z,5.46
2017-12-08T12:13:38.920Z,5.5
2017-12-08T12:14:48.998Z,5.46
2017-12-08T12:15:59.007Z,5.49
2017-12-08T12:17:09.289Z,5.41
2017-12-08T12:18:19.564Z,5.33
2017-12-08T12:19:29.862Z,5.31
2017-12-08T12:20:39.935Z,5.29
2017-12-08T12:21:50.216Z,5.28
2017-12-08T12:23:00.314Z,5.29
2017-12-08T12:24:09.974Z,5.21
2017-12-08T12:25:20.275Z,5.28
2017-12-08T12:26:30.773Z,5.16
2017-12-08T12:27:40.826Z,5.18
2017-12-08T12:28:51.105Z,5.21
2017-12-08T12:30:01.116Z,5.21
2017-12-08T12:31:11.385Z,5.18
2017-12-08T12:32:21.666Z,5.1
2017-12-08T12:34:03.932Z,5.03
2017-12-08T12:35:14.224Z,5.1
2017-12-08T12:36:24.060Z,5.1
2017-12-08T12:37:34.084Z,5
2017-12-08T12:38:44.074Z,5
2017-12-08T12:39:54.500Z,5
2017-12-08T12:41:04.515Z,4.98
2017-12-08T12:42:14.159Z,4.92
2017-12-08T12:43:24.475Z,4.95
2017-12-08T12:44:34.869Z,4.93
2017-12-08T12:45:44.881Z,4.88
2017-12-08T12:46:55.163Z,4.81
2017-12-08T12:48:05.183Z,4.74
2017-12-08T12:49:15.448Z,4.75
2017-12-08T12:50:25.760Z,4.62
2017-12-08T12:51:36.043Z,4.73
2017-12-08T12:52:46.073Z,4.6
2017-12-08T12:54:27.849Z,4.55
2017-12-08T12:55:38.837Z,4.53
2017-12-08T12:56:49.150Z,4.55
2017-12-08T12:57:58.941Z,4.49
2017-12-08T12:59:08.948Z,4.56
2017-12-08T13:00:19.240Z,4.56
2017-12-08T13:01:29.572Z,4.65
2017-12-08T13:02:39.899Z,4.63
2017-12-08T13:03:50.141Z,4.65
2017-12-08T13:05:00.166Z,4.57
2017-12-08T13:06:10.614Z,4.7
2017-12-08T13:07:20.941Z,4.6
2017-12-08T13:08:31.266Z,4.57
2017-12-08T13:09:41.310Z,4.73
2017-12-08T13:10:51.355Z,4.57
2017-12-08T13:12:01.732Z,4.71
2017-12-08T13:13:12.173Z,4.68
2017-12-08T13:14:22.473Z,4.57
2017-12-08T13:15:32.542Z,4.7
2017-12-08T13:16:42.839Z,4.57
2017-12-08T13:18:25.091Z,4.65
2017-12-08T13:19:35.111Z,4.56
2017-12-08T13:20:45.531Z,4.57
2017-12-08T13:21:55.637Z,4.53
2017-12-08T13:23:05.786Z,4.55
2017-12-08T13:24:16.160Z,4.56
2017-12-08T13:25:26.800Z,4.5
2017-12-08T13:26:36.697Z,4.53
2017-12-08T13:27:46.711Z,4.38
2017-12-08T13:28:57.121Z,4.38
2017-12-08T13:30:07.437Z,4.47
2017-12-08T13:31:17.712Z,4.38
2017-12-08T13:32:28.174Z,4.4
2017-12-08T13:33:38.434Z,4.43
2017-12-08T13:34:48.702Z,4.4
2017-12-08T13:35:59.057Z,4.43
2017-12-08T13:37:09.099Z,4.41
2017-12-08T13:38:19.008Z,4.37
2017-12-08T13:39:29.333Z,4.22
2017-12-08T13:40:39.646Z,4.28
2017-12-08T13:42:21.743Z,4.19
2017-12-08T13:43:32.003Z,4.09
2017-12-08T13:44:42.091Z,4.13
2017-12-08T13:45:52.111Z,3.86
2017-12-08T13:47:02.579Z,3.72
2017-12-08T13:48:12.710Z,3.39
2017-12-08T13:49:23.034Z,3.19
2017-12-08T13:50:33.353Z,2.92
2017-12-08T13:51:43.727Z,2.88
2017-12-08T13:52:54.066Z,2.7
2017-12-08T13:54:04.177Z,2.66
2017-12-08T13:55:14.716Z,2.42
2017-12-08T13:56:25.020Z,2.42
2017-12-08T13:57:35.304Z,2.3
2017-12-08T13:58:45.544Z,2.33
2017-12-08T13:59:56.167Z,2.3
2017-12-08T14:01:06.733Z,2.21
2017-12-08T14:02:17.118Z,2.08
2017-12-08T14:03:27.464Z,2.09
2017-12-08T14:04:37.916Z,2.03
2017-12-08T14:05:47.956Z,2.05
2017-12-08T14:06:58.915Z,1.9
2017-12-08T14:08:09.230Z,1.82
2017-12-08T14:09:19.270Z,1.82
2017-12-08T14:10:29.622Z,1.66
2017-12-08T14:11:39.951Z,1.62
2017-12-08T14:12:50.336Z,1.55
2017-12-08T14:14:00.751Z,1.64
2017-12-08T14:15:10.836Z,1.48
2017-12-08T14:16:21.132Z,1.54
2017-12-08T14:17:31.419Z,1.5
2017-12-08T14:18:41.588Z,1.54
2017-12-08T14:19:51.939Z,1.55
2017-12-08T14:21:02.240Z,1.53
2017-12-08T14:22:12.410Z,1.69
2017-12-08T14:23:22.530Z,1.53
2017-12-08T14:24:32.839Z,1.6
2017-12-08T14:25:43.221Z,1.54
2017-12-08T14:26:53.495Z,1.54
2017-12-08T14:28:03.795Z,1.6
2017-12-08T14:29:14.183Z,1.55
2017-12-08T14:30:24.556Z,1.53
2017-12-08T14:31:34.612Z,1.51
2017-12-08T14:32:44.316Z,1.7
2017-12-08T14:33:54.656Z,1.64
2017-12-08T14:35:04.972Z,1.7
2017-12-08T14:36:14.960Z,1.66
2017-12-08T14:37:25.446Z,1.69
2017-12-08T14:38:35.790Z,1.67
2017-12-08T14:39:45.776Z,1.57
2017-12-08T14:40:56.232Z,1.57
2017-12-08T14:42:06.330Z,1.57
2017-12-08T14:43:16.710Z,1.54
2017-12-08T14:44:26.919Z,1.48
2017-12-08T14:45:36.954Z,1.48
2017-12-08T14:46:47.244Z,1.6
2017-12-08T14:47:57.580Z,1.51
2017-12-08T14:49:07.494Z,1.55
2017-12-08T14:50:18.047Z,1.39
2017-12-08T14:51:28.309Z,1.38
2017-12-08T14:52:38.523Z,1.38
2017-12-08T14:53:48.544Z,1.47
2017-12-08T14:54:58.847Z,1.4
2017-12-08T14:56:09.155Z,1.46
2017-12-08T14:57:19.395Z,1.54
2017-12-08T14:58:29.712Z,1.47
2017-12-08T14:59:39.972Z,1.58
2017-12-08T15:00:50.577Z,1.62
2017-12-08T15:02:01.059Z,1.54
2017-12-08T15:03:11.349Z,1.54
2017-12-08T15:04:21.545Z,1.54
2017-12-08T15:05:31.820Z,1.53
2017-12-08T15:06:42.219Z,1.51
2017-12-08T15:07:52.489Z,1.54
2017-12-08T15:09:02.536Z,1.55
2017-12-08T15:10:12.844Z,1.4
2017-12-08T15:11:23.149Z,1.43
2017-12-08T15:12:33.453Z,1.43
2017-12-08T15:13:43.969Z,1.46
2017-12-08T15:14:54.244Z,1.46
2017-12-08T15:16:04.532Z,1.46
2017-12-08T15:17:14.987Z,1.4
2017-12-08T15:18:25.292Z,1.38
2017-12-08T15:19:36.550Z,1.36
2017-12-08T15:20:46.330Z,1.46
2017-12-08T15:21:56.694Z,1.43
2017-12-08T15:23:07.047Z,1.42
2017-12-08T15:24:17.119Z,1.48
2017-12-08T15:25:27.159Z,1.43
2017-12-08T15:26:37.446Z,1.48
2017-12-08T15:27:48.740Z,1.54
2017-12-08T15:28:59.121Z,1.48
2017-12-08T15:30:41.180Z,1.46
2017-12-08T15:31:50.994Z,1.51
2017-12-08T15:33:01.311Z,1.58
2017-12-08T15:34:11.578Z,1.53
2017-12-08T15:35:21.308Z,1.54
2017-12-08T15:36:31.597Z,1.54
2017-12-08T15:37:41.597Z,1.54
2017-12-08T15:38:52.846Z,1.58
2017-12-08T15:40:03.125Z,1.51
2017-12-08T15:41:13.490Z,1.67
2017-12-08T15:42:23.785Z,1.54